Time;durP1;ratioP1;P1;durP2;ratioP2;P2;SDS_P1;SDS_P2;PMS_P1;PMS_P2;Temp;Humidity;BMP_temperature;BMP_pressure;BME280_temperature;BME280_humidity;BME280_pressure;Samples;Min_cycle;Max_cycle;Signal;HPM_P1;HPM_P2
2022/04/19 00:01:12;;;;;;;13.20;9.20;;;7.10;99.90;;;;;;5190879;27;20049;-63
2022/04/19 00:03:38;;;;;;;10.88;9.10;;;7.10;99.90;;;;;;5171855;27;20050;-63
2022/04/19 00:06:04;;;;;;;13.32;9.38;;;7.00;99.90;;;;;;5171682;27;20041;-63
2022/04/19 00:08:30;;;;;;;14.25;9.50;;;6.90;99.90;;;;;;5191336;27;20125;-63
2022/04/19 00:10:56;;;;;;;12.95;9.55;;;6.80;99.90;;;;;;5174436;27;20042;-63
2022/04/19 00:13:21;;;;;;;13.07;9.50;;;6.80;99.90;;;;;;5172078;27;20042;-63
2022/04/19 00:15:47;;;;;;;13.85;10.13;;;6.70;99.90;;;;;;5168433;27;20047;-63
2022/04/19 00:18:14;;;;;;;13.90;9.18;;;6.70;99.90;;;;;;5190241;27;20034;-63
2022/04/19 00:20:42;;;;;;;18.17;10.35;;;6.60;99.90;;;;;;5171828;27;20078;-63
2022/04/19 00:23:15;;;;;;;15.02;10.18;;;6.70;99.90;;;;;;5172072;27;20057;-63
2022/04/19 00:25:50;;;;;;;12.85;9.77;;;6.60;99.90;;;;;;5187805;27;20531;-63
2022/04/19 00:28:16;;;;;;;13.60;9.80;;;6.60;99.90;;;;;;5172062;27;20072;-63
2022/04/19 00:30:43;;;;;;;14.65;10.35;;;6.60;99.90;;;;;;5150446;27;20046;-63
2022/04/19 00:33:09;;;;;;;15.40;11.73;;;6.70;99.90;;;;;;5171915;27;20038;-63
2022/04/19 00:35:36;;;;;;;13.98;10.18;;;6.80;99.90;;;;;;5171887;27;20083;-63
2022/04/19 00:38:02;;;;;;;11.50;10.30;;;6.90;99.90;;;;;;5190416;27;20075;-63
2022/04/19 00:40:28;;;;;;;12.57;9.38;;;7.00;99.90;;;;;;5171213;27;20046;-63
2022/04/19 00:42:54;;;;;;;12.10;9.02;;;6.90;99.90;;;;;;5170927;27;20046;-63
2022/04/19 00:45:22;;;;;;;12.40;8.55;;;6.80;99.90;;;;;;5195163;27;20053;-63
2022/04/19 00:47:52;;;;;;;10.77;9.20;;;6.60;99.90;;;;;;5166689;27;20054;-63
2022/04/19 00:50:18;;;;;;;13.48;10.00;;;6.50;99.90;;;;;;5169947;27;20067;-63
2022/04/19 00:52:44;;;;;;;12.80;9.35;;;6.60;99.90;;;;;;5166852;27;20042;-63
2022/04/19 00:55:11;;;;;;;13.07;10.02;;;6.30;99.90;;;;;;5185812;27;20045;-63
2022/04/19 00:57:43;;;;;;;14.75;10.88;;;6.50;99.90;;;;;;5170648;27;20049;-63
2022/04/19 01:00:12;;;;;;;13.73;10.07;;;6.30;99.90;;;;;;5169035;27;20084;-63
2022/04/19 01:02:38;;;;;;;14.45;10.93;;;6.40;99.90;;;;;;5189705;27;20046;-63
2022/04/19 01:05:05;;;;;;;12.45;9.77;;;6.30;99.90;;;;;;5188477;27;20051;-63
2022/04/19 01:07:31;;;;;;;12.75;9.85;;;6.40;99.90;;;;;;5170882;27;20046;-63
2022/04/19 01:09:58;;;;;;;15.07;10.02;;;6.40;99.90;;;;;;5171291;27;20072;-63
2022/04/19 01:15:10;;;;;;;14.13;10.63;;;6.40;99.90;;;;;;5153535;27;20053;-63
2022/04/19 01:17:39;;;;;;;11.13;9.30;;;6.40;99.90;;;;;;5169975;27;20053;-63
2022/04/19 01:20:07;;;;;;;16.20;10.27;;;6.20;99.90;;;;;;5189200;27;20493;-63
2022/04/19 01:22:43;;;;;;;15.95;11.10;;;6.10;99.90;;;;;;5173745;27;20700;-63
2022/04/19 01:25:10;;;;;;;11.40;10.20;;;6.10;99.90;;;;;;5168556;27;20042;-63
2022/04/19 01:27:36;;;;;;;14.25;10.90;;;6.10;99.90;;;;;;5167264;27;20050;-63
2022/04/19 01:30:08;;;;;;;15.18;10.57;;;6.30;99.90;;;;;;5192079;27;20045;-63
2022/04/19 01:32:35;;;;;;;12.95;10.63;;;6.20;99.90;;;;;;5188571;27;20109;-63
2022/04/19 01:35:15;;;;;;;11.63;9.75;;;6.20;99.90;;;;;;5189048;27;20066;-63
2022/04/19 01:37:43;;;;;;;14.93;9.30;;;6.30;99.90;;;;;;5170652;27;20059;-63
2022/04/19 01:40:18;;;;;;;13.68;9.82;;;6.00;99.90;;;;;;5182643;27;20045;-63
2022/04/19 01:43:02;;;;;;;13.20;9.77;;;6.10;99.90;;;;;;5188652;27;20042;-63
2022/04/19 01:45:30;;;;;;;12.73;10.32;;;6.00;99.90;;;;;;5188160;27;20054;-63
2022/04/19 01:47:57;;;;;;;13.40;10.27;;;5.90;99.90;;;;;;5182296;27;20037;-63
2022/04/19 01:50:27;;;;;;;11.68;10.07;;;5.80;99.90;;;;;;5188964;27;20049;-63
2022/04/19 01:52:54;;;;;;;13.90;9.82;;;5.80;99.90;;;;;;5168408;27;20045;-63
2022/04/19 01:55:21;;;;;;;12.35;10.27;;;5.70;99.90;;;;;;5183539;27;20067;-63
2022/04/19 01:57:56;;;;;;;11.90;9.93;;;5.70;99.90;;;;;;5169898;27;20126;-63
2022/04/19 02:00:22;;;;;;;12.52;8.90;;;5.70;99.90;;;;;;5188766;27;20049;-63
2022/04/19 02:02:48;;;;;;;12.95;9.63;;;5.70;99.90;;;;;;5170503;27;20053;-63
2022/04/19 02:05:15;;;;;;;13.45;10.63;;;5.70;99.90;;;;;;5188084;27;20052;-63
2022/04/19 02:07:45;;;;;;;12.02;9.98;;;5.70;99.90;;;;;;5169490;27;20041;-63
2022/04/19 02:10:14;;;;;;;12.57;9.20;;;5.80;99.90;;;;;;5184341;27;20105;-63
2022/04/19 02:12:40;;;;;;;12.40;9.63;;;5.70;99.90;;;;;;5188635;27;20046;-63
2022/04/19 02:15:08;;;;;;;11.35;9.20;;;5.60;99.90;;;;;;5188342;27;20034;-63
2022/04/19 02:17:34;;;;;;;12.00;9.60;;;5.60;99.90;;;;;;5185099;27;20080;-63
2022/04/19 02:20:02;;;;;;;13.80;10.45;;;5.60;99.90;;;;;;5187244;27;20072;-63
2022/04/19 02:22:29;;;;;;;13.63;10.15;;;5.60;99.90;;;;;;5188098;27;20053;-63
2022/04/19 02:24:56;;;;;;;13.55;10.70;;;5.30;99.90;;;;;;5169107;27;20098;-63
2022/04/19 02:27:24;;;;;;;12.77;9.50;;;5.30;99.90;;;;;;5169899;27;20078;-63
2022/04/19 02:29:50;;;;;;;13.77;10.45;;;5.20;99.90;;;;;;5168219;27;20042;-63
2022/04/19 02:32:16;;;;;;;13.35;10.10;;;5.20;99.90;;;;;;5169942;27;20034;-63
2022/04/19 02:34:42;;;;;;;14.30;9.52;;;5.20;99.90;;;;;;5188087;27;20098;-63
2022/04/19 02:37:08;;;;;;;12.57;10.10;;;5.10;99.90;;;;;;5168990;27;20034;-63
2022/04/19 02:39:36;;;;;;;12.55;10.05;;;5.00;99.90;;;;;;5187464;27;20046;-63
2022/04/19 02:42:04;;;;;;;14.02;10.18;;;5.00;99.90;;;;;;5181689;27;20038;-63
2022/04/19 02:44:29;;;;;;;13.40;10.15;;;4.90;99.90;;;;;;5187268;27;20071;-64
2022/04/19 02:46:55;;;;;;;14.20;10.10;;;4.90;99.90;;;;;;5188200;27;20046;-63
2022/04/19 02:49:21;;;;;;;12.65;9.90;;;5.10;99.90;;;;;;5185634;27;20299;-63
2022/04/19 02:51:47;;;;;;;12.75;9.82;;;5.10;99.90;;;;;;5168806;27;20057;-63
2022/04/19 02:54:13;;;;;;;13.10;10.68;;;5.00;99.90;;;;;;5179694;27;20046;-63
2022/04/19 02:56:39;;;;;;;13.30;10.57;;;5.00;99.90;;;;;;5163628;27;20042;-63
2022/04/19 02:59:05;;;;;;;14.52;10.65;;;5.00;99.90;;;;;;5169196;27;20046;-63
2022/04/19 03:01:31;;;;;;;12.30;10.43;;;5.00;99.90;;;;;;5188228;27;20104;-63
2022/04/19 03:03:57;;;;;;;13.02;10.38;;;4.90;99.90;;;;;;5167115;27;20063;-63
2022/04/19 03:06:23;;;;;;;13.63;10.73;;;5.00;99.90;;;;;;5182724;27;20038;-63
2022/04/19 03:08:49;;;;;;;12.48;9.95;;;5.00;99.90;;;;;;5167896;27;20058;-63
2022/04/19 03:11:15;;;;;;;13.40;10.10;;;5.00;99.90;;;;;;5191016;27;20038;-63
2022/04/19 03:13:42;;;;;;;11.57;9.82;;;4.90;99.90;;;;;;5187489;27;20046;-63
2022/04/19 03:16:10;;;;;;;13.20;11.82;;;4.90;99.90;;;;;;5168226;27;20082;-63
2022/04/19 03:18:36;;;;;;;12.85;10.63;;;4.70;99.90;;;;;;5179733;27;20069;-63
2022/04/19 03:21:02;;;;;;;13.10;10.10;;;4.80;99.90;;;;;;5168652;27;20042;-63
2022/04/19 03:28:56;;;;;;;13.50;9.95;;;4.50;99.90;;;;;;5186907;27;20397;-63
2022/04/19 03:31:22;;;;;;;11.38;9.77;;;4.40;99.90;;;;;;5167558;27;20042;-63
2022/04/19 03:33:52;;;;;;;15.38;11.90;;;4.40;99.90;;;;;;5168867;27;20042;-63
2022/04/19 03:36:21;;;;;;;14.05;10.70;;;4.40;99.90;;;;;;5168272;27;20097;-63
2022/04/19 03:38:46;;;;;;;11.60;8.70;;;4.50;99.90;;;;;;5186606;27;20034;-63
2022/04/19 03:41:13;;;;;;;11.93;10.13;;;4.40;99.90;;;;;;5168388;27;20129;-63
2022/04/19 03:43:38;;;;;;;13.73;10.77;;;4.30;99.90;;;;;;5164190;27;20097;-63
2022/04/19 03:46:05;;;;;;;14.15;10.48;;;4.20;99.90;;;;;;5168238;27;20061;-63
2022/04/19 03:48:32;;;;;;;13.25;10.02;;;4.20;99.90;;;;;;5168372;27;20050;-63
2022/04/19 03:50:58;;;;;;;14.45;10.70;;;4.10;99.90;;;;;;5187550;27;20054;-63
2022/04/19 03:53:24;;;;;;;15.30;11.43;;;4.20;99.90;;;;;;5164552;27;20445;-63
2022/04/19 03:55:49;;;;;;;13.90;11.02;;;4.20;99.90;;;;;;5190968;27;20053;-63
2022/04/19 03:58:15;;;;;;;16.50;10.98;;;4.10;99.90;;;;;;5172186;27;20117;-63
2022/04/19 04:00:41;;;;;;;14.55;11.15;;;4.10;99.90;;;;;;5167842;27;20034;-63
2022/04/19 04:03:06;;;;;;;14.13;11.02;;;4.10;99.90;;;;;;5169574;27;20083;-63
2022/04/19 04:05:32;;;;;;;17.63;12.05;;;4.10;99.90;;;;;;5171947;27;20094;-63
2022/04/19 04:07:58;;;;;;;16.95;12.20;;;4.20;99.90;;;;;;5172314;27;20496;-63
2022/04/19 04:10:24;;;;;;;17.15;12.52;;;4.40;99.90;;;;;;5172450;27;20063;-63
2022/04/19 04:12:50;;;;;;;15.55;11.73;;;4.40;99.90;;;;;;5171832;27;20566;-63
2022/04/19 04:15:16;;;;;;;16.65;11.55;;;4.50;99.90;;;;;;5172045;27;20129;-63
2022/04/19 04:17:43;;;;;;;15.85;11.50;;;4.60;99.90;;;;;;5189762;27;20059;-63
2022/04/19 04:20:09;;;;;;;14.93;11.90;;;4.50;99.90;;;;;;5188789;27;20026;-63
2022/04/19 04:22:35;;;;;;;16.23;12.20;;;4.50;99.90;;;;;;5167213;27;20046;-63
2022/04/19 04:25:02;;;;;;;13.25;11.07;;;4.50;99.90;;;;;;5171936;27;20045;-63
2022/04/19 04:27:28;;;;;;;15.55;11.50;;;4.30;99.90;;;;;;5165953;27;20050;-63
2022/04/19 04:29:53;;;;;;;16.05;12.05;;;4.20;99.90;;;;;;5186146;27;20034;-63
2022/04/19 04:32:19;;;;;;;14.73;11.73;;;4.20;99.90;;;;;;5190666;27;20063;-63
2022/04/19 04:34:45;;;;;;;15.80;12.32;;;4.30;99.90;;;;;;5168167;27;20063;-63
2022/04/19 04:37:11;;;;;;;16.48;12.30;;;4.20;99.90;;;;;;5186595;27;20038;-65
2022/04/19 04:39:37;;;;;;;17.58;11.13;;;4.20;99.90;;;;;;5169692;27;20042;-65
2022/04/19 04:42:03;;;;;;;14.10;11.45;;;4.20;99.90;;;;;;5172040;27;20038;-63
2022/04/19 04:44:28;;;;;;;17.00;12.75;;;4.20;99.90;;;;;;5096819;27;20076;-65
2022/04/19 04:49:41;;;;;;;13.20;11.10;;;4.20;99.90;;;;;;5107566;27;20046;-64
2022/04/19 04:52:11;;;;;;;15.32;12.27;;;4.10;99.90;;;;;;5103975;27;20052;-64
2022/04/19 04:54:38;;;;;;;19.38;12.90;;;4.20;99.90;;;;;;5106686;27;20070;-65
2022/04/19 04:57:04;;;;;;;20.00;14.00;;;4.30;99.90;;;;;;5125414;27;20039;-65
2022/04/19 04:59:31;;;;;;;19.70;13.45;;;4.40;99.90;;;;;;5120980;27;20074;-65
2022/04/19 05:01:58;;;;;;;18.55;13.95;;;4.40;99.90;;;;;;5122674;27;20047;-65
2022/04/19 05:04:24;;;;;;;18.45;13.90;;;4.50;99.90;;;;;;5112907;27;20423;-65
2022/04/19 05:06:49;;;;;;;17.83;13.55;;;4.70;99.90;;;;;;5099724;27;20746;-65
2022/04/19 05:09:15;;;;;;;17.33;13.27;;;4.80;99.90;;;;;;5124285;27;20048;-65
2022/04/19 05:11:41;;;;;;;18.73;12.68;;;4.80;99.90;;;;;;5117202;27;20074;-65
2022/04/19 05:14:08;;;;;;;16.75;12.18;;;4.80;99.90;;;;;;5109033;27;20346;-65
2022/04/19 05:16:36;;;;;;;16.92;13.20;;;4.80;99.90;;;;;;5110913;27;20047;-64
2022/04/19 05:19:04;;;;;;;15.20;12.63;;;4.70;99.90;;;;;;5127043;27;20118;-64
2022/04/19 05:21:29;;;;;;;16.42;12.80;;;4.80;99.90;;;;;;5113470;27;20047;-65
2022/04/19 05:23:55;;;;;;;18.00;13.32;;;4.70;99.90;;;;;;5132657;27;20047;-66
2022/04/19 05:26:23;;;;;;;15.88;13.00;;;4.80;99.90;;;;;;5094572;28;20082;-65
2022/04/19 05:28:49;;;;;;;18.05;13.45;;;4.90;99.90;;;;;;5134650;27;20047;-65
2022/04/19 05:31:14;;;;;;;17.48;14.25;;;5.20;99.90;;;;;;5129427;27;20046;-65
2022/04/19 05:33:40;;;;;;;17.20;13.27;;;5.30;99.90;;;;;;5131920;27;20067;-65
2022/04/19 05:36:06;;;;;;;16.90;14.10;;;5.30;99.90;;;;;;5104310;27;20049;-65
2022/04/19 05:38:32;;;;;;;19.27;13.82;;;5.50;99.90;;;;;;5127124;27;20050;-66
2022/04/19 05:40:58;;;;;;;18.15;14.00;;;5.80;99.90;;;;;;5116978;27;20039;-66
2022/04/19 05:43:25;;;;;;;19.42;13.75;;;5.70;99.90;;;;;;5103479;27;20104;-66
2022/04/19 05:45:51;;;;;;;17.58;13.77;;;5.80;99.90;;;;;;5124643;27;20123;-65
2022/04/19 05:48:16;;;;;;;18.73;13.82;;;5.80;99.90;;;;;;5124919;27;20074;-65
2022/04/19 05:50:42;;;;;;;17.40;13.65;;;5.90;99.90;;;;;;5122634;27;20055;-65
2022/04/19 05:53:08;;;;;;;19.83;13.68;;;6.00;99.90;;;;;;5129878;27;20039;-65
2022/04/19 05:55:34;;;;;;;18.77;13.95;;;6.10;99.90;;;;;;5125120;27;20054;-65
2022/04/19 05:57:59;;;;;;;18.77;14.40;;;6.20;99.90;;;;;;5130645;27;20103;-65
2022/04/19 06:00:25;;;;;;;18.40;14.40;;;6.30;99.90;;;;;;5138116;27;20107;-64
2022/04/19 06:05:35;;;;;;;19.23;13.77;;;6.40;99.90;;;;;;5124253;27;20069;-64
2022/04/19 06:08:01;;;;;;;16.33;13.15;;;6.70;99.90;;;;;;5112464;27;20107;-64
2022/04/19 06:10:27;;;;;;;19.30;13.88;;;6.70;99.90;;;;;;5128549;27;20300;-65
2022/04/19 06:12:53;;;;;;;19.83;13.30;;;6.80;99.90;;;;;;5110377;27;20031;-64
2022/04/19 06:15:19;;;;;;;17.02;13.32;;;6.90;99.90;;;;;;5136420;27;20035;-64
2022/04/19 06:17:44;;;;;;;16.67;13.38;;;7.00;99.90;;;;;;5083925;28;20043;-65
2022/04/19 06:20:10;;;;;;;15.32;12.70;;;7.10;99.90;;;;;;5136708;27;20039;-64
2022/04/19 06:22:36;;;;;;;20.88;14.40;;;7.20;99.90;;;;;;5115655;27;20055;-64
2022/04/19 06:25:02;;;;;;;20.17;14.10;;;7.50;99.90;;;;;;5112640;28;20320;-64
2022/04/19 06:27:28;;;;;;;19.15;13.93;;;7.60;99.90;;;;;;5108234;27;20131;-64
2022/04/19 06:29:56;;;;;;;18.02;13.02;;;7.70;99.90;;;;;;5124553;27;20079;-64
2022/04/19 06:32:22;;;;;;;17.60;13.57;;;7.90;99.90;;;;;;5127190;27;20568;-64
2022/04/19 06:34:48;;;;;;;18.10;13.30;;;8.10;99.90;;;;;;5129859;27;20046;-66
2022/04/19 06:37:14;;;;;;;20.27;13.57;;;8.20;99.90;;;;;;5114664;27;20058;-66
2022/04/19 06:39:44;;;;;;;17.98;12.38;;;8.20;99.90;;;;;;5131012;27;20031;-65
2022/04/19 06:42:11;;;;;;;21.25;13.07;;;8.30;99.90;;;;;;5121604;27;20059;-66
2022/04/19 06:44:37;;;;;;;16.30;12.43;;;8.30;99.90;;;;;;5111041;27;20075;-65
2022/04/19 06:47:03;;;;;;;16.80;13.00;;;8.40;99.90;;;;;;5119239;27;20031;-66
2022/04/19 06:49:29;;;;;;;17.48;12.60;;;8.50;99.90;;;;;;5123999;27;20506;-65
2022/04/19 06:51:54;;;;;;;19.65;12.65;;;8.60;99.90;;;;;;5113727;28;20078;-65
2022/04/19 06:54:20;;;;;;;16.95;12.10;;;8.50;99.90;;;;;;5124157;27;20043;-66
2022/04/19 06:56:46;;;;;;;18.50;13.10;;;8.70;99.90;;;;;;5123257;28;20063;-66
2022/04/19 06:59:12;;;;;;;18.25;12.70;;;8.80;99.90;;;;;;5102757;27;20047;-66
2022/04/19 07:01:40;;;;;;;19.75;13.02;;;8.90;99.90;;;;;;5117180;27;20084;-66
2022/04/19 07:04:08;;;;;;;16.50;11.85;;;9.20;99.90;;;;;;5107514;27;20462;-66
2022/04/19 07:06:34;;;;;;;16.17;12.27;;;9.40;99.90;;;;;;5134765;27;20053;-66
2022/04/19 07:09:00;;;;;;;16.52;11.30;;;9.40;99.90;;;;;;5105325;27;20038;-66
2022/04/19 07:11:25;;;;;;;16.65;12.38;;;9.50;99.90;;;;;;5137910;27;20049;-65
2022/04/19 07:13:51;;;;;;;14.73;11.90;;;9.60;99.90;;;;;;5105922;28;20655;-65
2022/04/19 07:16:17;;;;;;;20.02;11.77;;;9.80;99.90;;;;;;5128705;28;20054;-65
2022/04/19 07:18:43;;;;;;;17.40;11.88;;;10.10;99.90;;;;;;5118833;28;20058;-66
2022/04/19 07:26:47;;;;;;;16.67;11.88;;;10.50;99.90;;;;;;5109973;27;20051;-66
2022/04/19 07:29:15;;;;;;;18.63;12.05;;;10.80;99.90;;;;;;5127017;27;20050;-66
2022/04/19 07:31:43;;;;;;;15.43;11.18;;;10.80;99.90;;;;;;5134815;27;20285;-66
2022/04/19 07:34:10;;;;;;;15.30;11.23;;;10.90;99.90;;;;;;5105319;27;20070;-66
2022/04/19 07:36:39;;;;;;;14.32;10.48;;;10.90;99.90;;;;;;5130604;27;20051;-66
2022/04/19 07:39:06;;;;;;;12.85;10.27;;;11.10;99.90;;;;;;5108461;27;20623;-66
2022/04/19 07:41:34;;;;;;;13.55;10.13;;;11.10;99.90;;;;;;5140654;27;20067;-66
2022/04/19 07:44:01;;;;;;;12.30;9.45;;;11.20;99.90;;;;;;5106687;27;20039;-66
2022/04/19 07:46:28;;;;;;;12.60;10.40;;;11.10;99.90;;;;;;5136292;27;20051;-66
2022/04/19 07:48:54;;;;;;;12.52;10.02;;;11.20;99.90;;;;;;5100235;27;20050;-68
2022/04/19 07:51:20;;;;;;;13.45;10.65;;;11.40;99.90;;;;;;5128839;27;20490;-66
2022/04/19 07:53:46;;;;;;;11.90;9.98;;;11.40;99.90;;;;;;5112690;27;20138;-67
2022/04/19 07:56:12;;;;;;;18.33;9.15;;;11.70;99.90;;;;;;5125472;27;20655;-66
2022/04/19 07:58:37;;;;;;;12.75;10.00;;;11.80;99.90;;;;;;5103933;27;20047;-67
2022/04/19 08:01:03;;;;;;;13.98;9.77;;;11.90;99.90;;;;;;5123695;27;20070;-66
2022/04/19 08:03:29;;;;;;;13.00;9.55;;;12.20;99.90;;;;;;5115904;27;20067;-66
2022/04/19 08:05:56;;;;;;;12.98;9.15;;;12.20;99.90;;;;;;5119992;27;20049;-66
2022/04/19 08:08:22;;;;;;;11.65;8.68;;;12.30;99.90;;;;;;5122007;27;20122;-66
2022/04/19 08:10:48;;;;;;;13.02;8.98;;;12.20;99.90;;;;;;5131657;27;20042;-67
2022/04/19 08:13:14;;;;;;;13.52;8.68;;;12.30;99.90;;;;;;5123265;27;20142;-67
2022/04/19 08:15:40;;;;;;;13.80;8.50;;;12.40;99.90;;;;;;5119814;27;20406;-66
2022/04/19 08:18:06;;;;;;;12.88;7.80;;;12.50;99.90;;;;;;5125080;27;20262;-67
2022/04/19 08:20:32;;;;;;;16.00;8.50;;;12.60;99.90;;;;;;5121002;27;20490;-66
2022/04/19 08:22:58;;;;;;;9.60;7.07;;;12.50;99.90;;;;;;5126596;27;20072;-67
2022/04/19 08:25:24;;;;;;;8.85;6.25;;;12.60;99.90;;;;;;5118357;27;20047;-66
2022/04/19 08:27:51;;;;;;;9.50;6.32;;;12.70;99.90;;;;;;5131736;27;20054;-66
2022/04/19 08:30:18;;;;;;;9.43;6.68;;;12.80;99.90;;;;;;5080868;27;20166;-66
2022/04/19 08:32:48;;;;;;;8.55;6.40;;;12.80;99.90;;;;;;5137210;27;20051;-66
2022/04/19 08:35:14;;;;;;;11.77;6.68;;;13.00;99.90;;;;;;5109283;27;20039;-67
2022/04/19 08:37:40;;;;;;;8.88;5.55;;;13.20;99.90;;;;;;5119749;27;20070;-66
2022/04/19 08:40:08;;;;;;;7.95;5.80;;;13.20;99.90;;;;;;5098106;27;20052;-66
2022/04/19 08:42:34;;;;;;;10.82;5.65;;;13.50;99.90;;;;;;5117784;27;20047;-66
2022/04/19 08:45:03;;;;;;;9.07;5.50;;;13.40;99.90;;;;;;5128469;27;20046;-66
2022/04/19 08:47:36;;;;;;;7.20;4.97;;;13.50;99.90;;;;;;5137865;27;20042;-66
2022/04/19 08:50:04;;;;;;;15.10;5.30;;;13.50;99.90;;;;;;5096613;28;20044;-66
2022/04/19 08:52:32;;;;;;;5.53;4.68;;;13.60;99.90;;;;;;5118938;27;20054;-66
2022/04/19 08:57:42;;;;;;;7.18;5.10;;;13.70;99.90;;;;;;5135725;27;20054;-66
2022/04/19 09:00:08;;;;;;;7.50;4.85;;;13.70;99.90;;;;;;5115873;27;20059;-66
2022/04/19 09:02:37;;;;;;;6.53;3.97;;;13.80;99.90;;;;;;5133753;27;20035;-66
2022/04/19 09:05:20;;;;;;;5.32;3.40;;;13.90;99.90;;;;;;5113802;27;20088;-67
2022/04/19 09:07:48;;;;;;;5.72;3.63;;;14.00;99.90;;;;;;5113818;27;20047;-66
2022/04/19 09:10:16;;;;;;;4.68;3.60;;;14.00;99.90;;;;;;5113466;27;20050;-66
2022/04/19 09:13:00;;;;;;;5.70;3.42;;;13.90;99.90;;;;;;5131091;27;20054;-66
2022/04/19 09:15:54;;;;;;;6.15;3.40;;;14.20;99.90;;;;;;5122003;27;20055;-67
2022/04/19 09:18:29;;;;;;;5.13;3.67;;;14.10;99.90;;;;;;5055995;28;20060;-66
2022/04/19 09:20:56;;;;;;;4.47;3.47;;;14.00;99.90;;;;;;5049750;28;20238;-66
2022/04/19 09:23:23;;;;;;;4.90;3.92;;;13.90;99.90;;;;;;5039343;28;20060;-66
2022/04/19 09:25:53;;;;;;;4.15;3.75;;;13.90;99.90;;;;;;5046161;28;20118;-66
2022/04/19 09:28:23;;;;;;;8.07;3.88;;;14.00;99.90;;;;;;5055833;28;20076;-67
2022/04/19 09:30:52;;;;;;;4.75;3.97;;;14.10;99.90;;;;;;5047641;28;20764;-66
2022/04/19 09:33:19;;;;;;;7.30;3.38;;;14.10;99.90;;;;;;5074423;28;20071;-66
2022/04/19 09:35:54;;;;;;;4.22;3.47;;;14.20;99.90;;;;;;5051315;28;20118;-66
2022/04/19 09:38:33;;;;;;;5.55;3.42;;;14.20;99.90;;;;;;5059696;28;20037;-66
2022/04/19 09:40:59;;;;;;;8.30;3.85;;;14.30;99.90;;;;;;5025726;28;20057;-66
2022/04/19 09:43:25;;;;;;;5.28;4.05;;;14.50;99.90;;;;;;5026320;28;20117;-67
2022/04/19 09:45:58;;;;;;;4.80;3.47;;;14.40;99.90;;;;;;5027250;28;20045;-67
2022/04/19 09:48:27;;;;;;;4.68;4.00;;;14.40;99.90;;;;;;5023339;28;20627;-67
2022/04/19 09:50:55;;;;;;;4.53;3.83;;;14.50;99.90;;;;;;5029067;28;20585;-67
2022/04/19 09:53:25;;;;;;;7.15;3.72;;;14.50;99.90;;;;;;5020919;28;20037;-67
2022/04/19 09:55:55;;;;;;;5.70;3.47;;;14.50;99.90;;;;;;5084600;28;20063;-65
2022/04/19 09:58:22;;;;;;;6.70;3.67;;;14.90;99.90;;;;;;5075173;28;20058;-66
2022/04/19 10:00:49;;;;;;;5.93;3.70;;;15.00;99.90;;;;;;5072595;28;20044;-66
2022/04/19 10:08:47;;;;;;;4.60;3.72;;;15.10;99.90;;;;;;5083302;28;20078;-66
2022/04/19 10:11:15;;;;;;;5.32;3.90;;;15.20;99.90;;;;;;5083220;28;20077;-66
2022/04/19 10:13:41;;;;;;;4.90;3.85;;;15.20;99.90;;;;;;5089695;28;20036;-67
2022/04/19 10:16:16;;;;;;;6.07;3.80;;;15.20;99.90;;;;;;5065401;28;20063;-66
2022/04/19 10:18:45;;;;;;;5.53;3.88;;;15.20;99.90;;;;;;5103963;28;20060;-67
2022/04/19 10:21:34;;;;;;;4.43;4.03;;;15.10;99.90;;;;;;5068180;28;20067;-66
2022/04/19 10:24:09;;;;;;;7.80;3.78;;;15.10;99.90;;;;;;5099271;28;20043;-66
2022/04/19 10:26:43;;;;;;;4.70;3.47;;;15.20;99.90;;;;;;5083535;28;20059;-66
2022/04/19 10:29:26;;;;;;;3.78;3.42;;;15.10;99.90;;;;;;5076944;28;20073;-67
2022/04/19 10:32:04;;;;;;;3.97;3.30;;;15.20;99.90;;;;;;5102201;28;20050;-66
2022/04/19 10:34:37;;;;;;;5.60;3.80;;;15.20;99.90;;;;;;5092188;28;20123;-67
2022/04/19 10:37:15;;;;;;;4.22;3.83;;;15.70;99.90;;;;;;5085127;28;20051;-67
2022/04/19 10:40:07;;;;;;;4.07;3.67;;;15.90;99.90;;;;;;5087493;28;20594;-66
2022/04/19 10:42:38;;;;;;;4.40;3.58;;;15.90;99.90;;;;;;5067294;28;20048;-66
2022/04/19 10:45:12;;;;;;;6.72;3.60;;;16.00;99.90;;;;;;5085118;27;20116;-66
2022/04/19 10:47:54;;;;;;;5.30;3.80;;;16.00;99.90;;;;;;5118583;27;20050;-66
2022/04/19 10:50:33;;;;;;;4.45;4.05;;;16.20;99.90;;;;;;5119200;27;20063;-67
2022/04/19 10:53:12;;;;;;;5.20;3.63;;;16.10;99.90;;;;;;5112328;27;20058;-67
2022/04/19 10:55:53;;;;;;;8.93;3.83;;;16.10;99.90;;;;;;5120742;27;20422;-67
2022/04/19 10:58:20;;;;;;;4.68;3.92;;;16.10;99.90;;;;;;5115030;27;20053;-67
2022/04/19 11:01:02;;;;;;;5.95;4.38;;;16.40;99.90;;;;;;5135038;27;20046;-67
2022/04/19 11:03:34;;;;;;;4.57;3.53;;;16.50;99.90;;;;;;5113878;27;20047;-66
2022/04/19 11:06:02;;;;;;;5.30;3.38;;;16.60;99.90;;;;;;5124361;27;20086;-67
2022/04/19 11:08:31;;;;;;;5.15;3.47;;;16.60;99.90;;;;;;5122585;27;20518;-66
2022/04/19 11:11:02;;;;;;;6.78;4.75;;;16.90;99.90;;;;;;5129031;27;20046;-66
2022/04/19 11:13:31;;;;;;;5.32;3.65;;;16.90;99.80;;;;;;5119755;27;20057;-67
2022/04/19 11:16:03;;;;;;;7.55;3.58;;;17.00;99.70;;;;;;5143356;27;20049;-66
2022/04/19 11:18:57;;;;;;;6.30;3.30;;;16.90;99.30;;;;;;5110377;27;20076;-66
2022/04/19 11:21:56;;;;;;;5.50;3.55;;;16.70;99.90;;;;;;5150665;27;20045;-66
2022/04/19 11:24:56;;;;;;;6.30;3.20;;;16.70;99.90;;;;;;5118107;27;20536;-65
2022/04/19 11:27:23;;;;;;;3.88;3.40;;;17.00;99.50;;;;;;5114615;27;20276;-67
2022/04/19 11:29:50;;;;;;;8.73;3.78;;;17.10;99.30;;;;;;5127664;27;20592;-66
2022/04/19 11:32:25;;;;;;;6.65;3.95;;;17.10;99.90;;;;;;5122277;27;20036;-66
2022/04/19 11:35:04;;;;;;;5.93;4.32;;;17.10;99.20;;;;;;5106639;27;20057;-66
2022/04/19 11:37:31;;;;;;;8.90;4.88;;;17.20;99.90;;;;;;5114874;27;20048;-66
2022/04/19 11:48:30;;;;;;;39.42;5.97;;;17.40;97.30;;;;;;5118636;27;20043;-66
2022/04/19 11:51:10;;;;;;;4.72;4.13;;;17.50;99.80;;;;;;5135979;27;20035;-66
2022/04/19 11:53:36;;;;;;;;;;;17.50;95.70;;;;;;5077479;27;20325;-66
2022/04/19 11:56:03;;;;;;;11.13;5.15;;;17.30;97.40;;;;;;5140956;27;19922;-66
2022/04/19 11:58:29;;;;;;;7.10;4.50;;;17.50;99.90;;;;;;5108858;27;20596;-66
2022/04/19 12:00:58;;;;;;;6.53;3.95;;;17.60;99.80;;;;;;5135758;27;20634;-66
2022/04/19 12:03:27;;;;;;;14.38;4.70;;;17.60;98.80;;;;;;5125979;27;20149;-67
2022/04/19 12:05:55;;;;;;;24.00;5.10;;;17.70;96.60;;;;;;5133803;27;20049;-66
2022/04/19 12:08:51;;;;;;;6.20;4.18;;;17.90;96.90;;;;;;5106945;27;20332;-67
2022/04/19 12:11:25;;;;;;;7.78;4.63;;;18.00;95.70;;;;;;5068889;28;20058;-66
2022/04/19 12:13:51;;;;;;;4.75;4.20;;;18.00;95.50;;;;;;5046839;28;20163;-67
2022/04/19 12:16:34;;;;;;;7.88;3.95;;;18.00;96.10;;;;;;5043017;28;20664;-67
2022/04/19 12:19:12;;;;;;;8.88;3.70;;;18.10;91.20;;;;;;5041811;28;20056;-67
2022/04/19 12:21:45;;;;;;;9.48;4.78;;;18.00;96.20;;;;;;5052254;28;20057;-68
2022/04/19 12:24:24;;;;;;;5.35;3.90;;;18.10;96.50;;;;;;5063946;28;20048;-68
2022/04/19 12:27:05;;;;;;;5.65;4.03;;;18.10;95.80;;;;;;5056906;28;20060;-67
2022/04/19 12:29:31;;;;;;;5.75;3.85;;;18.10;95.20;;;;;;5047017;28;20358;-67
2022/04/19 12:32:00;;;;;;;4.22;3.67;;;18.00;94.00;;;;;;5056845;28;20163;-68
2022/04/19 12:34:37;;;;;;;3.67;3.38;;;18.10;92.30;;;;;;5046731;28;20147;-67
2022/04/19 12:37:14;;;;;;;7.68;3.50;;;18.00;91.20;;;;;;5055810;28;20049;-68
2022/04/19 12:39:42;;;;;;;7.75;4.18;;;17.90;93.20;;;;;;5010695;28;20110;-68
2022/04/19 12:42:11;;;;;;;7.57;4.28;;;18.20;97.10;;;;;;5037725;28;20532;-68
2022/04/19 12:44:39;;;;;;;11.82;3.58;;;18.30;95.60;;;;;;5012317;28;20563;-68
2022/04/19 12:47:14;;;;;;;41.58;6.05;;;18.50;95.90;;;;;;5049293;27;20077;-68
2022/04/19 12:49:47;;;;;;;4.85;3.53;;;18.70;95.70;;;;;;5103826;28;20055;-68
2022/04/19 12:52:15;;;;;;;4.70;3.35;;;18.80;94.50;;;;;;5119535;27;20050;-68
2022/04/19 12:54:43;;;;;;;4.82;4.05;;;18.80;89.20;;;;;;5116530;27;20058;-67
2022/04/19 12:57:13;;;;;;;4.35;3.95;;;18.80;89.80;;;;;;5130675;27;20054;-68
2022/04/19 12:59:38;;;;;;;11.60;4.15;;;18.80;89.70;;;;;;5109506;27;20654;-68
2022/04/19 13:02:05;;;;;;;9.98;4.05;;;18.80;91.70;;;;;;5136229;27;20118;-68
2022/04/19 13:04:30;;;;;;;5.28;4.10;;;18.70;91.80;;;;;;5095944;27;20171;-68
2022/04/19 13:12:26;;;;;;;5.88;3.97;;;18.90;92.50;;;;;;5131085;27;20112;-68
2022/04/19 13:14:55;;;;;;;5.80;4.45;;;18.70;93.10;;;;;;5108731;27;20097;-68
2022/04/19 13:17:22;;;;;;;4.20;3.80;;;18.80;94.50;;;;;;5121386;27;20039;-68
2022/04/19 13:19:48;;;;;;;6.38;4.47;;;18.80;96.50;;;;;;5122078;27;20047;-68
2022/04/19 13:22:14;;;;;;;4.53;4.00;;;19.20;93.60;;;;;;5134231;27;20031;-68
2022/04/19 13:24:41;;;;;;;6.72;3.97;;;19.30;95.70;;;;;;5104919;27;20059;-68
2022/04/19 13:27:11;;;;;;;6.47;3.72;;;19.40;90.70;;;;;;5116914;27;20051;-68
2022/04/19 13:29:38;;;;;;;21.70;5.10;;;19.80;86.30;;;;;;5109624;27;20546;-68